Time;durP1;ratioP1;P1;durP2;ratioP2;P2;SDS_P1;SDS_P2;PMS_P1;PMS_P2;Temp;Humidity;BMP_temperature;BMP_pressure;BME280_temperature;BME280_humidity;BME280_pressure;Samples;Min_cycle;Max_cycle;Signal;HPM_P1;HPM_P2
2022/06/14 00:01:25;;;;;;;0.47;0.32;;;;;;;13.94;100.00;100587.09;7399443;19;20085;-85
2022/06/14 00:03:52;;;;;;;0.57;0.30;;;;;;;13.81;100.00;100581.00;7393635;19;20019;-84
2022/06/14 00:06:24;;;;;;;1.67;0.30;;;;;;;13.92;100.00;100575.63;7393358;19;20006;-84
2022/06/14 00:08:51;;;;;;;2.92;0.60;;;;;;;13.90;100.00;100575.31;7392935;19;20023;-84
2022/06/14 00:11:20;;;;;;;0.95;0.45;;;;;;;13.78;100.00;100579.16;7397484;19;20006;-84
2022/06/14 00:13:48;;;;;;;1.95;0.60;;;;;;;13.71;100.00;100576.75;7394644;19;20500;-84
2022/06/14 00:16:15;;;;;;;1.10;0.85;;;;;;;13.60;100.00;100575.25;7395438;19;20019;-85
2022/06/14 00:18:42;;;;;;;6.53;1.00;;;;;;;13.57;100.00;100570.63;7397085;19;20037;-84
2022/06/14 00:21:08;;;;;;;5.57;0.85;;;;;;;13.56;100.00;100569.06;7398416;19;20015;-84
2022/06/14 00:23:35;;;;;;;0.38;0.30;;;;;;;13.45;100.00;100568.84;7394959;19;20018;-83
2022/06/14 00:26:02;;;;;;;0.40;0.40;;;;;;;13.40;100.00;100571.53;7392005;19;20018;-85
2022/06/14 00:28:30;;;;;;;0.47;0.45;;;;;;;13.28;100.00;100564.94;7393902;19;20018;-84
2022/06/14 00:31:00;;;;;;;0.20;0.20;;;;;;;13.21;100.00;100568.09;7393472;19;20398;-84
2022/06/14 00:33:26;;;;;;;0.57;0.57;;;;;;;12.94;100.00;100568.25;7391754;19;20015;-84
2022/06/14 00:36:05;;;;;;;0.47;0.43;;;;;;;12.90;100.00;100564.84;7396188;19;20014;-84
2022/06/14 00:38:32;;;;;;;0.25;0.25;;;;;;;12.84;100.00;100563.94;7395159;19;20469;-84
2022/06/14 00:41:00;;;;;;;1.30;0.60;;;;;;;12.78;100.00;100566.59;7397782;19;20010;-84
2022/06/14 00:43:29;;;;;;;0.55;0.55;;;;;;;12.80;100.00;100568.91;7394097;19;20370;-84
2022/06/14 00:46:11;;;;;;;0.43;0.30;;;;;;;12.78;100.00;100571.41;7393387;19;20041;-83
2022/06/14 00:48:39;;;;;;;5.43;1.08;;;;;;;12.77;100.00;100569.88;7393042;19;20018;-84
2022/06/14 00:51:23;;;;;;;2.50;0.50;;;;;;;12.76;100.00;100576.69;7391536;19;20006;-84
2022/06/14 00:53:56;;;;;;;2.45;0.93;;;;;;;12.71;100.00;100557.81;7393304;19;20022;-84
2022/06/14 00:56:42;;;;;;;0.38;0.32;;;;;;;12.64;100.00;100561.72;7394831;19;20025;-85
2022/06/14 00:59:32;;;;;;;0.20;0.20;;;;;;;12.60;100.00;100560.34;7395301;19;20053;-84
2022/06/14 01:02:08;;;;;;;1.65;0.40;;;;;;;12.68;100.00;100556.72;7395077;19;20017;-84
2022/06/14 01:04:35;;;;;;;0.30;0.22;;;;;;;12.61;100.00;100557.06;7394229;19;20014;-84
2022/06/14 01:07:26;;;;;;;0.43;0.43;;;;;;;12.59;100.00;100542.00;7394657;19;20043;-84
2022/06/14 01:10:01;;;;;;;1.08;0.52;;;;;;;12.65;100.00;100540.13;7394510;19;20496;-83
2022/06/14 01:12:38;;;;;;;0.57;0.20;;;;;;;12.59;100.00;100542.00;7392868;19;20011;-84
2022/06/14 01:15:30;;;;;;;2.55;1.00;;;;;;;12.51;100.00;100546.41;7392482;19;20046;-83
2022/06/14 01:18:07;;;;;;;1.95;1.00;;;;;;;12.56;100.00;100551.34;7392884;19;20086;-81
2022/06/14 01:20:34;;;;;;;0.98;0.45;;;;;;;12.53;100.00;100538.31;7393367;19;20018;-83
2022/06/14 01:23:02;;;;;;;2.63;0.55;;;;;;;12.56;100.00;100542.97;7391359;19;20010;-84
2022/06/14 01:25:32;;;;;;;1.25;0.73;;;;;;;12.50;100.00;100542.81;7390802;19;20015;-84
2022/06/14 01:28:01;;;;;;;0.38;0.35;;;;;;;12.50;100.00;100544.84;7393858;19;20033;-83
2022/06/14 01:30:31;;;;;;;0.77;0.65;;;;;;;12.51;100.00;100529.63;7395529;19;20029;-84
2022/06/14 01:33:09;;;;;;;5.57;0.60;;;;;;;12.54;100.00;100523.13;7393918;19;20006;-83
2022/06/14 01:35:38;;;;;;;0.57;0.57;;;;;;;12.56;100.00;100526.22;7386639;19;20022;-84
2022/06/14 01:38:08;;;;;;;0.43;0.40;;;;;;;12.55;100.00;100535.81;7389856;19;20045;-84
2022/06/14 01:41:11;;;;;;;0.50;0.50;;;;;;;12.52;100.00;100531.94;7387335;19;20035;-84
2022/06/14 01:44:13;;;;;;;1.33;0.90;;;;;;;12.58;100.00;100518.13;7395734;19;20073;-84
2022/06/14 01:46:57;;;;;;;1.20;0.40;;;;;;;12.66;100.00;100524.91;7390582;19;20037;-84
2022/06/14 01:52:29;;;;;;;0.95;0.50;;;;;;;12.55;100.00;100517.03;7389427;19;20006;-84
2022/06/14 01:55:10;;;;;;;0.50;0.38;;;;;;;12.63;100.00;100531.44;7391491;19;20333;-84
2022/06/14 01:57:52;;;;;;;1.10;0.93;;;;;;;12.68;100.00;100525.19;7391470;19;20015;-84
2022/06/14 02:00:34;;;;;;;0.82;0.32;;;;;;;12.73;100.00;100516.19;7395710;19;20023;-84
2022/06/14 02:06:13;;;;;;;2.22;0.50;;;;;;;12.75;100.00;100522.06;7400349;19;20704;-83
2022/06/14 02:08:49;;;;;;;2.08;0.38;;;;;;;12.74;100.00;100512.91;7399585;19;20010;-83
2022/06/14 02:11:23;;;;;;;0.75;0.30;;;;;;;12.73;100.00;100521.78;7403703;19;20010;-83
2022/06/14 02:13:55;;;;;;;2.15;0.63;;;;;;;12.73;100.00;100516.19;7397763;19;20050;-83
2022/06/14 02:16:32;;;;;;;1.38;0.47;;;;;;;12.85;100.00;100515.94;7400945;19;20018;-83
2022/06/14 02:19:06;;;;;;;1.45;0.65;;;;;;;12.88;100.00;100509.41;7400906;19;20051;-83
2022/06/14 02:21:38;;;;;;;2.55;0.77;;;;;;;12.90;100.00;100506.13;7400857;19;20019;-83
2022/06/14 02:24:15;;;;;;;0.60;0.38;;;;;;;12.91;100.00;100507.66;7397640;19;20011;-83
2022/06/14 02:26:45;;;;;;;0.50;0.50;;;;;;;12.91;100.00;100499.28;7395901;19;20017;-83
2022/06/14 02:29:24;;;;;;;0.75;0.45;;;;;;;12.94;100.00;100495.56;7396662;19;20007;-83
2022/06/14 02:32:22;;;;;;;0.85;0.77;;;;;;;12.89;100.00;100493.41;7399510;19;20011;-83
2022/06/14 02:35:01;;;;;;;2.50;1.05;;;;;;;12.89;100.00;100490.59;7395048;19;20106;-83
2022/06/14 02:37:40;;;;;;;1.02;0.55;;;;;;;12.87;100.00;100495.91;7403594;19;20019;-83
2022/06/14 02:40:11;;;;;;;0.40;0.40;;;;;;;12.87;100.00;100484.72;7399686;19;20010;-84
2022/06/14 02:42:44;;;;;;;0.25;0.25;;;;;;;12.91;100.00;100485.31;7399466;19;20496;-85
2022/06/14 02:45:25;;;;;;;2.92;1.00;;;;;;;12.97;100.00;100489.00;7394556;19;20029;-84
2022/06/14 02:47:56;;;;;;;1.83;0.45;;;;;;;13.03;100.00;100484.31;7397099;19;20074;-85
2022/06/14 02:50:30;;;;;;;0.20;0.20;;;;;;;13.05;100.00;100489.44;7398967;19;20586;-84
2022/06/14 02:53:29;;;;;;;2.30;0.47;;;;;;;13.05;100.00;100487.44;7397397;19;20034;-85
2022/06/14 02:56:09;;;;;;;1.55;0.60;;;;;;;13.09;100.00;100496.41;7397410;19;20825;-84
2022/06/14 02:58:41;;;;;;;0.73;0.73;;;;;;;13.09;100.00;100496.41;7399114;19;20015;-85
2022/06/14 03:01:32;;;;;;;2.58;0.85;;;;;;;13.13;100.00;100490.63;7400930;19;20026;-84
2022/06/14 03:04:09;;;;;;;0.85;0.28;;;;;;;13.15;100.00;100488.13;7395431;19;20015;-85
2022/06/14 03:07:10;;;;;;;0.88;0.40;;;;;;;13.19;100.00;100489.47;7396147;19;20025;-84
2022/06/14 03:09:39;;;;;;;0.97;0.40;;;;;;;13.23;100.00;100487.28;7394733;19;20022;-83
2022/06/14 03:12:17;;;;;;;2.22;0.65;;;;;;;13.27;100.00;100479.50;7398694;19;20348;-82
2022/06/14 03:15:08;;;;;;;0.20;0.20;;;;;;;13.28;100.00;100483.81;7393271;19;20019;-83
2022/06/14 03:18:30;;;;;;;0.50;0.50;;;;;;;13.28;100.00;100483.81;7397338;19;20018;-83
2022/06/14 03:21:19;;;;;;;7.13;1.15;;;;;;;13.31;100.00;100480.06;7397377;19;20018;-83
2022/06/14 03:24:04;;;;;;;0.80;0.60;;;;;;;13.39;100.00;100481.25;7396508;19;20010;-82
2022/06/14 03:26:45;;;;;;;0.40;0.15;;;;;;;13.41;100.00;100481.53;7393228;19;20014;-82
2022/06/14 03:29:19;;;;;;;1.15;0.93;;;;;;;13.47;100.00;100476.81;7394233;19;20014;-82
2022/06/14 03:31:57;;;;;;;0.28;0.20;;;;;;;13.49;100.00;100468.69;7396288;19;20421;-84
2022/06/14 03:34:23;;;;;;;0.52;0.52;;;;;;;13.54;100.00;100470.06;7395759;19;20025;-82
2022/06/14 03:36:52;;;;;;;0.80;0.40;;;;;;;13.50;100.00;100473.06;7397705;19;20343;-82
2022/06/14 03:39:28;;;;;;;1.50;1.20;;;;;;;13.46;100.00;100469.69;7397852;19;20464;-83
2022/06/14 03:41:55;;;;;;;0.90;0.90;;;;;;;13.43;100.00;100470.63;7400082;19;20010;-85
2022/06/14 03:44:24;;;;;;;0.85;0.70;;;;;;;13.42;100.00;100473.91;7394012;19;20018;-85
2022/06/14 03:47:09;;;;;;;2.33;0.45;;;;;;;13.42;100.00;100479.50;7395549;19;20023;-84
2022/06/14 03:49:50;;;;;;;0.50;0.25;;;;;;;13.41;100.00;100467.53;7395281;19;20465;-84
2022/06/14 03:52:32;;;;;;;;;;;;;;;13.44;100.00;100472.19;7400110;19;20015;-84
2022/06/14 03:55:19;;;;;;;1.33;0.30;;;;;;;13.54;100.00;100470.84;7393866;19;19948;-84
2022/06/14 03:58:06;;;;;;;0.40;0.40;;;;;;;13.56;100.00;100461.94;7396066;19;20042;-84
2022/06/14 04:00:39;;;;;;;0.38;0.38;;;;;;;13.61;100.00;100467.66;7396984;19;20010;-84
2022/06/14 04:03:30;;;;;;;0.35;0.35;;;;;;;13.59;100.00;100467.38;7393056;19;20107;-84
2022/06/14 04:06:10;;;;;;;0.68;0.60;;;;;;;13.55;100.00;100464.00;7396640;19;20026;-84
2022/06/14 04:08:47;;;;;;;0.82;0.40;;;;;;;13.62;100.00;100454.47;7396497;19;20014;-84
2022/06/14 04:11:23;;;;;;;2.38;0.80;;;;;;;13.70;100.00;100461.19;7398203;19;20017;-84
2022/06/14 04:14:19;;;;;;;1.17;0.52;;;;;;;13.74;100.00;100458.19;7395242;19;20022;-84
2022/06/14 04:16:51;;;;;;;0.60;0.45;;;;;;;13.75;100.00;100456.97;7394855;19;20373;-84
2022/06/14 04:19:39;;;;;;;0.95;0.60;;;;;;;13.80;100.00;100464.66;7395925;19;20022;-84
2022/06/14 04:22:35;;;;;;;0.28;0.20;;;;;;;13.82;100.00;100456.59;7398852;19;20018;-83
2022/06/14 04:25:10;;;;;;;0.50;0.50;;;;;;;13.86;100.00;100454.34;7392925;19;20018;-84
2022/06/14 04:27:48;;;;;;;1.38;0.57;;;;;;;13.91;100.00;100454.44;7394120;19;20011;-84
2022/06/14 04:30:33;;;;;;;2.95;0.68;;;;;;;13.93;100.00;100454.72;7395411;19;20011;-84
2022/06/14 04:33:12;;;;;;;0.32;0.32;;;;;;;13.98;100.00;100464.47;7394783;19;20014;-84
2022/06/14 04:35:41;;;;;;;3.03;0.82;;;;;;;13.98;100.00;100453.28;7383959;19;20022;-84
2022/06/14 04:38:13;;;;;;;2.83;0.95;;;;;;;14.11;100.00;100459.34;7396587;19;20342;-84
2022/06/14 04:40:49;;;;;;;0.95;0.73;;;;;;;14.23;100.00;100458.25;7388592;19;20018;-84
2022/06/14 04:43:24;;;;;;;4.95;0.60;;;;;;;14.15;100.00;100451.50;7388739;19;20018;-83
2022/06/14 04:45:58;;;;;;;1.70;0.85;;;;;;;14.20;100.00;100454.41;7398346;19;20010;-83
2022/06/14 04:48:29;;;;;;;4.93;0.47;;;;;;;14.24;100.00;100465.41;7394422;19;20015;-84
2022/06/14 04:51:03;;;;;;;0.90;0.38;;;;;;;14.26;100.00;100458.06;7398806;19;20014;-84
2022/06/14 04:53:45;;;;;;;0.13;0.13;;;;;;;14.35;100.00;100454.41;7394365;19;20698;-84
2022/06/14 04:56:20;;;;;;;0.52;0.52;;;;;;;14.37;100.00;100451.88;7392123;19;20015;-84
2022/06/14 04:59:18;;;;;;;0.90;0.55;;;;;;;14.42;100.00;100451.19;7393177;19;20038;-84
2022/06/14 05:01:52;;;;;;;4.35;1.13;;;;;;;14.49;100.00;100453.56;7397607;19;20022;-84
2022/06/14 05:04:32;;;;;;;4.47;0.75;;;;;;;14.57;100.00;100454.72;7393045;19;20022;-84
2022/06/14 05:07:03;;;;;;;0.88;0.35;;;;;;;14.64;100.00;100453.53;7391512;19;20037;-84
2022/06/14 05:09:34;;;;;;;;;;;;;;;14.65;100.00;100458.66;7392584;19;20035;-85
2022/06/14 05:12:21;;;;;;;1.43;0.57;;;;;;;14.71;100.00;100459.50;7395449;19;19926;-84
2022/06/14 05:14:54;;;;;;;8.07;1.23;;;;;;;14.77;100.00;100457.53;7390077;19;20019;-84
2022/06/14 05:17:30;;;;;;;2.92;1.30;;;;;;;14.83;100.00;100455.59;7393336;19;20014;-83
2022/06/14 05:20:07;;;;;;;1.88;0.82;;;;;;;14.92;100.00;100468.72;7392291;19;20014;-83
2022/06/14 05:22:59;;;;;;;2.72;1.05;;;;;;;15.01;100.00;100468.53;7393002;19;20022;-84
2022/06/14 05:25:35;;;;;;;1.45;0.57;;;;;;;15.11;100.00;100464.34;7391457;19;20022;-84
2022/06/14 05:28:09;;;;;;;0.65;0.65;;;;;;;15.22;100.00;100469.31;7393265;19;20014;-84
2022/06/14 05:30:55;;;;;;;3.25;0.50;;;;;;;15.30;100.00;100464.81;7393349;19;20010;-84
2022/06/14 05:33:28;;;;;;;0.50;0.43;;;;;;;15.36;100.00;100465.63;7392163;19;20048;-83
2022/06/14 05:36:15;;;;;;;2.03;0.57;;;;;;;15.40;100.00;100463.41;7392897;19;20014;-84
2022/06/14 05:38:53;;;;;;;3.50;0.93;;;;;;;15.43;100.00;100465.22;7394608;19;20338;-84
2022/06/14 05:41:32;;;;;;;0.70;0.70;;;;;;;15.51;100.00;100463.53;7394558;19;20082;-84
2022/06/14 05:44:16;;;;;;;0.77;0.77;;;;;;;15.57;100.00;100464.38;7389438;19;20020;-84
2022/06/14 05:46:49;;;;;;;10.38;1.08;;;;;;;15.65;100.00;100460.63;7390012;19;20014;-83
2022/06/14 05:49:36;;;;;;;3.63;0.70;;;;;;;15.77;100.00;100464.31;7390302;19;20019;-84
2022/06/14 05:52:14;;;;;;;14.38;1.38;;;;;;;15.78;100.00;100460.25;7395483;19;20006;-84
2022/06/14 05:54:50;;;;;;;9.73;0.82;;;;;;;15.83;100.00;100473.56;7390825;19;20018;-84
2022/06/14 05:57:37;;;;;;;7.00;0.98;;;;;;;15.96;100.00;100470.38;7390856;19;20018;-84
2022/06/14 06:00:32;;;;;;;6.28;0.40;;;;;;;15.95;100.00;100458.34;7392756;19;20021;-84
2022/06/14 06:02:58;;;;;;;8.90;0.73;;;;;;;15.99;100.00;100470.13;7391049;19;20022;-84
2022/06/14 06:05:35;;;;;;;0.93;0.30;;;;;;;15.98;100.00;100465.78;7391957;19;20019;-85
2022/06/14 06:08:14;;;;;;;2.03;0.57;;;;;;;15.99;100.00;100463.72;7391356;19;20494;-84
2022/06/14 06:10:47;;;;;;;1.17;0.45;;;;;;;16.04;100.00;100466.59;7393664;19;20025;-84
2022/06/14 06:13:21;;;;;;;2.08;0.55;;;;;;;16.06;100.00;100469.69;7390425;19;20015;-84
2022/06/14 06:16:12;;;;;;;1.48;0.73;;;;;;;16.12;100.00;100466.91;7391999;19;20028;-85
2022/06/14 06:19:24;;;;;;;1.80;0.52;;;;;;;16.13;100.00;100463.63;7390089;19;20694;-85
2022/06/14 06:21:56;;;;;;;0.43;0.20;;;;;;;16.14;100.00;100465.13;7389776;19;20473;-84
2022/06/14 06:24:43;;;;;;;3.15;0.60;;;;;;;16.14;100.00;100465.13;7387980;19;20025;-84
2022/06/14 06:27:12;;;;;;;5.22;0.77;;;;;;;16.07;100.00;100468.41;7390289;19;20058;-84
2022/06/14 06:29:53;;;;;;;0.95;0.50;;;;;;;15.94;100.00;100465.22;7390788;19;20038;-84
2022/06/14 06:32:21;;;;;;;0.55;0.52;;;;;;;15.80;100.00;100463.31;7392759;19;20021;-85
2022/06/14 06:34:49;;;;;;;1.17;0.32;;;;;;;15.69;100.00;100464.00;7387946;19;20051;-85
2022/06/14 06:37:26;;;;;;;1.42;0.40;;;;;;;15.65;100.00;100469.06;7390020;19;20352;-84
2022/06/14 06:40:04;;;;;;;5.85;0.80;;;;;;;15.61;100.00;100467.75;7392727;19;20477;-84
2022/06/14 06:42:32;;;;;;;0.63;0.32;;;;;;;15.49;100.00;100466.06;7390591;19;20392;-84
2022/06/14 06:45:15;;;;;;;2.15;0.77;;;;;;;15.64;100.00;100472.34;7388225;19;20015;-84
2022/06/14 06:48:01;;;;;;;1.25;0.82;;;;;;;15.86;100.00;100472.56;7392148;19;20090;-84
2022/06/14 06:50:37;;;;;;;0.20;0.20;;;;;;;15.73;100.00;100470.16;7399964;19;20018;-84
2022/06/14 06:53:12;;;;;;;3.35;0.22;;;;;;;15.64;100.00;100469.53;7401352;19;20023;-84
2022/06/14 06:55:41;;;;;;;0.65;0.40;;;;;;;15.72;100.00;100462.22;7394826;19;20014;-85
2022/06/14 06:58:34;;;;;;;2.67;0.30;;;;;;;15.93;100.00;100466.50;7400011;19;20041;-85
2022/06/14 07:01:06;;;;;;;0.63;0.40;;;;;;;16.05;100.00;100454.06;7402398;19;20014;-85
2022/06/14 07:03:54;;;;;;;1.75;0.32;;;;;;;16.47;100.00;100454.13;7397844;19;20022;-85
2022/06/14 07:06:33;;;;;;;0.60;0.30;;;;;;;16.87;100.00;100452.34;7397865;19;20015;-86
2022/06/14 07:09:06;;;;;;;7.32;0.65;;;;;;;17.25;100.00;100454.53;7396907;19;20030;-85
2022/06/14 07:11:44;;;;;;;0.70;0.60;;;;;;;17.62;100.00;100449.53;7399893;19;20025;-85
2022/06/14 07:14:18;;;;;;;0.35;0.10;;;;;;;17.95;100.00;100455.19;7396516;19;20034;-85
2022/06/14 07:17:02;;;;;;;1.75;0.30;;;;;;;18.18;100.00;100465.19;7399741;19;20006;-85
2022/06/14 07:19:42;;;;;;;1.13;0.35;;;;;;;18.38;100.00;100457.75;7397052;19;20025;-86
2022/06/14 07:22:20;;;;;;;0.57;0.20;;;;;;;18.50;100.00;100453.63;7402810;19;20022;-85
2022/06/14 07:25:03;;;;;;;2.05;0.10;;;;;;;18.60;100.00;100457.72;7399704;19;20038;-85
2022/06/14 07:27:40;;;;;;;0.20;0.20;;;;;;;18.69;100.00;100457.47;7399106;19;20007;-85
2022/06/14 07:30:18;;;;;;;2.08;0.63;;;;;;;18.80;100.00;100455.34;7398770;19;20026;-84
2022/06/14 07:32:50;;;;;;;0.10;0.10;;;;;;;18.99;100.00;100460.44;7396994;19;20022;-85
2022/06/14 07:35:25;;;;;;;0.80;0.28;;;;;;;18.97;100.00;100452.50;7399854;19;20031;-86
2022/06/14 07:38:15;;;;;;;0.20;0.10;;;;;;;18.96;100.00;100461.47;7396992;19;20022;-85
2022/06/14 07:40:46;;;;;;;1.83;0.47;;;;;;;18.93;100.00;100460.44;7397499;19;20014;-85
2022/06/14 07:43:40;;;;;;;1.55;0.30;;;;;;;19.00;100.00;100451.44;7397268;19;20022;-85
2022/06/14 07:46:15;;;;;;;1.20;0.45;;;;;;;19.08;100.00;100458.06;7397190;19;20015;-85
2022/06/14 07:48:47;;;;;;;4.13;0.47;;;;;;;19.14;100.00;100449.59;7397096;19;20018;-85
2022/06/14 07:51:38;;;;;;;0.88;0.20;;;;;;;19.13;100.00;100448.81;7400038;19;20015;-85
2022/06/14 07:54:21;;;;;;;0.20;0.10;;;;;;;19.15;100.00;100443.41;7398396;19;20041;-85
2022/06/14 07:57:02;;;;;;;0.85;0.60;;;;;;;19.28;100.00;100440.78;7397429;19;20314;-85
2022/06/14 07:59:44;;;;;;;;;;;;;;;19.34;100.00;100441.53;7398482;19;20066;-85
2022/06/14 08:02:22;;;;;;;8.40;1.00;;;;;;;19.49;100.00;100441.97;7405959;19;19944;-85
2022/06/14 08:05:00;;;;;;;0.88;0.22;;;;;;;19.59;100.00;100434.72;7400609;19;20029;-85
2022/06/14 08:07:29;;;;;;;0.20;0.10;;;;;;;19.71;100.00;100437.47;7399758;19;20088;-85
2022/06/14 08:10:11;;;;;;;0.10;0.10;;;;;;;19.83;100.00;100436.09;7401670;19;20462;-84
2022/06/14 08:12:48;;;;;;;0.10;0.00;;;;;;;19.98;100.00;100428.78;7399476;19;20022;-85
2022/06/14 08:15:21;;;;;;;1.08;0.10;;;;;;;20.04;100.00;100428.72;7397055;19;20038;-85
2022/06/14 08:18:15;;;;;;;5.50;0.70;;;;;;;19.98;100.00;100422.34;7398030;19;20516;-85
2022/06/14 08:20:46;;;;;;;0.10;0.10;;;;;;;20.11;100.00;100423.25;7396565;19;20010;-85
2022/06/14 08:23:29;;;;;;;0.35;0.20;;;;;;;20.22;100.00;100422.41;7400045;19;20030;-85
2022/06/14 08:26:21;;;;;;;1.00;0.13;;;;;;;20.30;100.00;100429.00;7394355;19;20042;-84
2022/06/14 08:28:56;;;;;;;0.73;0.10;;;;;;;20.39;100.00;100420.19;7394153;19;20011;-85
2022/06/14 08:31:32;;;;;;;2.35;0.52;;;;;;;20.46;100.00;100422.44;7397306;19;20338;-84
2022/06/14 08:34:12;;;;;;;0.30;0.15;;;;;;;20.92;100.00;100416.47;7393824;19;20017;-85
2022/06/14 08:36:50;;;;;;;1.15;0.28;;;;;;;20.90;100.00;100413.41;7395658;19;20018;-85
2022/06/14 08:39:24;;;;;;;0.85;0.45;;;;;;;20.91;100.00;100414.97;7399231;19;20575;-85
2022/06/14 08:41:57;;;;;;;7.05;0.30;;;;;;;20.70;100.00;100407.50;7398804;19;20018;-84
2022/06/14 08:44:31;;;;;;;0.20;0.17;;;;;;;20.61;100.00;100424.84;7393812;19;20403;-84
2022/06/14 08:47:09;;;;;;;1.45;0.20;;;;;;;20.49;100.00;100418.53;7391418;19;20018;-84
2022/06/14 08:49:51;;;;;;;2.65;0.28;;;;;;;20.39;100.00;100414.53;7391150;19;20011;-84
2022/06/14 08:52:23;;;;;;;1.85;0.52;;;;;;;20.28;100.00;100414.63;7396121;19;20038;-84
2022/06/14 08:55:21;;;;;;;3.58;0.40;;;;;;;20.35;100.00;100405.56;7391375;19;20042;-85
2022/06/14 08:58:19;;;;;;;0.70;0.13;;;;;;;20.36;100.00;100402.19;7395440;19;20025;-85
2022/06/14 09:00:58;;;;;;;0.50;0.20;;;;;;;20.27;100.00;100410.28;7395545;19;20558;-85
2022/06/14 09:03:49;;;;;;;2.35;0.60;;;;;;;20.68;100.00;100402.34;7392846;19;20014;-85
2022/06/14 09:06:43;;;;;;;1.58;0.85;;;;;;;20.85;100.00;100402.94;7392261;19;20456;-84
2022/06/14 09:09:34;;;;;;;2.28;0.30;;;;;;;20.89;100.00;100396.97;7392213;19;20338;-85
2022/06/14 09:12:19;;;;;;;4.57;0.63;;;;;;;20.80;100.00;100400.94;7393932;19;20007;-85
2022/06/14 09:15:31;;;;;;;0.10;0.03;;;;;;;21.11;100.00;100403.13;7390448;19;20448;-84
2022/06/14 09:18:26;;;;;;;0.57;0.40;;;;;;;21.11;100.00;100400.28;7391685;19;20019;-84
2022/06/14 09:20:55;;;;;;;1.88;0.25;;;;;;;21.07;100.00;100397.00;7394954;19;20015;-85
2022/06/14 09:23:31;;;;;;;2.83;0.30;;;;;;;21.13;100.00;100386.38;7393345;19;20034;-84
2022/06/14 09:25:59;;;;;;;0.10;0.00;;;;;;;21.21;100.00;100386.50;7391373;19;20704;-85
2022/06/14 09:28:46;;;;;;;0.17;0.10;;;;;;;21.63;100.00;100379.19;7393459;19;20024;-85
2022/06/14 09:31:24;;;;;;;0.70;0.10;;;;;;;21.36;98.88;100380.38;7396105;19;20047;-84
2022/06/14 09:34:22;;;;;;;0.93;0.10;;;;;;;21.16;100.00;100383.78;7392359;19;20011;-85
2022/06/14 09:37:21;;;;;;;0.75;0.25;;;;;;;21.00;100.00;100382.66;7393777;19;20022;-84
2022/06/14 09:40:10;;;;;;;1.25;0.35;;;;;;;20.89;100.00;100383.59;7390404;19;20078;-84
2022/06/14 09:43:12;;;;;;;2.38;0.45;;;;;;;20.73;100.00;100376.06;7393689;19;20353;-85
2022/06/14 09:46:15;;;;;;;0.40;0.20;;;;;;;20.63;100.00;100377.72;7389345;19;20018;-84
2022/06/14 09:49:00;;;;;;;0.43;0.20;;;;;;;20.49;100.00;100376.06;7393339;19;20445;-84
2022/06/14 09:51:35;;;;;;;0.32;0.20;;;;;;;20.44;100.00;100382.59;7396077;19;20022;-84
2022/06/14 09:54:45;;;;;;;2.85;0.17;;;;;;;20.55;100.00;100373.97;7393239;19;20019;-85
2022/06/14 09:57:43;;;;;;;0.50;0.22;;;;;;;20.87;100.00;100372.03;7389856;19;20030;-85
2022/06/14 10:00:36;;;;;;;0.57;0.32;;;;;;;20.98;100.00;100371.88;7393661;19;20086;-84
2022/06/14 10:03:05;;;;;;;0.20;0.10;;;;;;;21.17;99.68;100379.63;7392249;19;20046;-85
2022/06/14 10:05:50;;;;;;;1.45;0.20;;;;;;;21.23;99.10;100383.13;7392023;19;20010;-84
2022/06/14 10:09:03;;;;;;;1.58;0.15;;;;;;;21.53;97.15;100378.03;7393213;19;20014;-85
2022/06/14 10:11:54;;;;;;;0.32;0.28;;;;;;;21.73;99.70;100383.16;7392112;19;20897;-84
2022/06/14 10:14:54;;;;;;;1.98;0.40;;;;;;;21.91;100.00;100382.38;7390000;19;20489;-84
2022/06/14 10:18:02;;;;;;;0.98;0.63;;;;;;;21.74;97.62;100382.59;7391413;19;20109;-84
2022/06/14 10:20:57;;;;;;;1.33;0.20;;;;;;;21.76;98.76;100384.91;7388910;19;20006;-83
2022/06/14 10:24:07;;;;;;;6.78;0.25;;;;;;;22.02;96.82;100385.00;7390027;19;20031;-84
2022/06/14 10:30:05;;;;;;;4.82;1.15;;;;;;;22.80;92.69;100380.72;7392710;19;20037;-83
2022/06/14 10:32:43;;;;;;;0.20;0.10;;;;;;;23.27;90.42;100378.63;7396368;19;20028;-84
2022/06/14 10:35:20;;;;;;;4.03;0.75;;;;;;;23.09;88.60;100374.63;7394489;19;20018;-84
2022/06/14 10:38:04;;;;;;;0.95;0.47;;;;;;;22.95;90.39;100369.53;7399135;19;20022;-84
2022/06/14 10:41:12;;;;;;;1.00;0.20;;;;;;;22.88;91.33;100378.72;7403226;19;20022;-84
2022/06/14 10:43:41;;;;;;;11.00;0.57;;;;;;;22.67;91.65;100375.03;7394884;19;20045;-85
2022/06/14 10:46:17;;;;;;;0.45;0.30;;;;;;;22.57;92.00;100378.28;7393284;19;20035;-84
2022/06/14 10:49:02;;;;;;;2.08;0.05;;;;;;;22.36;93.21;100368.91;7394829;19;20046;-85
2022/06/14 10:52:11;;;;;;;0.10;0.10;;;;;;;22.15;91.76;100368.00;7398852;19;20023;-84
2022/06/14 10:54:43;;;;;;;2.38;0.10;;;;;;;21.83;94.19;100372.94;7393913;19;20360;-83
2022/06/14 10:57:38;;;;;;;0.10;0.10;;;;;;;21.61;96.56;100371.22;7403438;19;20031;-83
2022/06/14 11:00:33;;;;;;;2.83;1.00;;;;;;;21.62;99.23;100366.31;7397598;19;20023;-84
2022/06/14 11:03:15;;;;;;;0.08;0.00;;;;;;;22.20;92.89;100360.72;7398044;19;20015;-83
2022/06/14 11:06:02;;;;;;;0.75;0.20;;;;;;;22.22;89.32;100358.09;7395021;19;20046;-83
2022/06/14 11:09:03;;;;;;;6.82;0.30;;;;;;;22.01;92.29;100357.94;7398873;19;20010;-83
2022/06/14 11:11:57;;;;;;;1.55;0.98;;;;;;;21.88;92.83;100360.75;7401318;19;20022;-84
2022/06/14 11:14:58;;;;;;;1.83;0.10;;;;;;;21.79;93.37;100356.22;7395933;19;20022;-83
2022/06/14 11:17:35;;;;;;;1.90;0.40;;;;;;;21.92;94.18;100354.78;7395370;19;20030;-83
2022/06/14 11:20:01;;;;;;;0.82;0.30;;;;;;;21.83;92.81;100350.25;7395815;19;20428;-84
2022/06/14 11:22:53;;;;;;;0.28;0.28;;;;;;;21.77;89.80;100358.06;7398238;19;20365;-83
2022/06/14 11:25:55;;;;;;;0.88;0.25;;;;;;;21.67;93.67;100346.41;7395441;19;20363;-84
2022/06/14 11:28:35;;;;;;;1.05;0.20;;;;;;;21.62;93.33;100352.13;7394932;19;20026;-84
2022/06/14 11:31:04;;;;;;;0.68;0.25;;;;;;;21.66;98.28;100346.91;7396729;19;20416;-83
2022/06/14 11:33:58;;;;;;;6.95;0.65;;;;;;;21.97;99.48;100342.53;7399931;19;20014;-83
2022/06/14 11:36:54;;;;;;;1.10;0.10;;;;;;;22.21;95.58;100334.63;7395791;19;20035;-84
2022/06/14 11:39:34;;;;;;;0.30;0.13;;;;;;;22.63;96.79;100333.53;7396679;19;20027;-83
2022/06/14 11:42:05;;;;;;;0.10;0.10;;;;;;;22.95;95.72;100332.59;7399859;19;20010;-84
2022/06/14 11:44:46;;;;;;;0.57;0.10;;;;;;;23.09;93.19;100328.41;7395672;19;20015;-84
2022/06/14 11:47:34;;;;;;;1.75;0.20;;;;;;;22.90;91.65;100330.66;7396165;19;20033;-84
2022/06/14 11:50:34;;;;;;;1.58;0.15;;;;;;;23.31;90.37;100319.38;7393403;19;20040;-85
2022/06/14 11:53:16;;;;;;;0.55;0.30;;;;;;;23.57;90.81;100319.25;7394540;19;20437;-85
2022/06/14 11:55:53;;;;;;;1.08;0.10;;;;;;;23.78;86.48;100316.44;7393112;19;20051;-85
2022/06/14 11:59:01;;;;;;;1.70;0.35;;;;;;;23.71;87.62;100312.19;7395932;19;20086;-85
2022/06/14 12:01:33;;;;;;;0.20;0.10;;;;;;;23.96;86.40;100312.56;7399218;19;20373;-85
2022/06/14 12:04:17;;;;;;;0.28;0.15;;;;;;;24.21;84.74;100313.75;7393480;19;20003;-85
2022/06/14 12:07:08;;;;;;;0.45;0.15;;;;;;;24.30;83.00;100309.63;7392089;19;20025;-85
2022/06/14 12:09:53;;;;;;;;;;;;;;;24.22;80.26;100303.09;7395065;19;20014;-84
2022/06/14 12:12:40;;;;;;;0.22;0.20;;;;;;;24.21;79.81;100296.66;7398567;19;19915;-84
2022/06/14 12:15:17;;;;;;;1.65;0.10;;;;;;;24.31;84.67;100288.34;7393444;19;20032;-84
2022/06/14 12:17:55;;;;;;;1.98;0.45;;;;;;;24.55;79.25;100287.91;7394400;19;20480;-84
2022/06/14 12:20:24;;;;;;;6.95;0.60;;;;;;;24.61;78.58;100288.50;7395232;19;20010;-85
2022/06/14 12:23:00;;;;;;;1.20;0.30;;;;;;;24.86;78.75;100286.75;7399414;19;20017;-84
2022/06/14 12:28:44;;;;;;;1.27;0.25;;;;;;;24.73;77.06;100276.19;7395681;19;20054;-84
2022/06/14 12:31:19;;;;;;;2.03;0.70;;;;;;;24.68;79.95;100276.38;7398071;19;20026;-84
2022/06/14 12:33:54;;;;;;;0.80;0.25;;;;;;;24.40;79.87;100282.13;7394789;19;20018;-84